US Aviators Van Nuys Flight School Los Angeles Pilot school at Van Nuys Simulator Flight Training Profesional Pilot Instruction Learn to Fly

U.S. Aviators

Learn to fly here! (818) 779-2105

Weather at Van Nuys Airport

Observed:Tue Sep 23, 00:51 PDT
Age:27 min ago
Wind:Calm
Visibility:10 miles
Clouds:Clear skies
Temperature:66°F (19°C)
Dewpoint:61°F (16°C)
Humidity:83%
Barometer:1015 hPa (29.96 in Hg)

METAR

KVNY 230751Z 00000KT 10SM CLR 19/16 A2996 RMK AO2 SLP135 T01940156 403220156